Flight Track Log - Related Links

Times and Time Zones

All times are in EDT time to prevent confusion due to time zone crossing. See the N628GE flight status page for this flight to view local times or setup timezone preferences in your user account.

Time Position Orientation Groundspeed Altitude Reporting Facility
EDT Latitude Longitude Course Direction KTS MPH feet Rate Location/Type
Wed 11:09:34 AM 40.8333 -74.2833 180° South 99 114 2,000  Level New York TRACON
Wed 11:10:34 AM 40.8000 -74.2833 180° South 97 112 2,800 800 Climbing New York TRACON
Wed 11:11:34 AM 40.7833 -74.2667 143° Southeast 98 113 3,600 850 Climbing New York TRACON
Wed 11:12:34 AM 40.7500 -74.2667 180° South 107 123 4,500 700 Climbing New York TRACON
Wed 11:13:34 AM 40.7167 -74.2500 159° South 113 130 5,000 263 Climbing New York TRACON
Wed 11:14:28 AM 40.6833 -74.2500 180° South 150 173 5,000  Level New York TRACON
Wed 11:15:34 AM 40.6333 -74.2500 180° South 149 171 5,000  Level New York TRACON
Wed 11:16:34 AM 40.6000 -74.2833 217° Southwest 142 163 5,000  Level New York TRACON
Wed 11:17:34 AM 40.5667 -74.2833 180° South 148 170 5,000  Level New York TRACON
Wed 11:19:00 AM 40.5152 -74.2576 159° South  Level FlightAware Approximate
Wed 11:26:00 AM 40.2729 -74.1500 180° South  Level FlightAware Approximate
Wed 11:27:00 AM 40.2362 -74.1500 180° South  Level FlightAware Approximate
Wed 11:28:00 AM 40.1994 -74.1500 180° South  Level FlightAware Approximate
Wed 11:29:00 AM 40.1626 -74.1500 180° South  Level FlightAware Approximate
Wed 11:30:00 AM 40.1259 -74.1500 180° South  Level FlightAware Approximate
Wed 11:31:00 AM 40.0891 -74.1500 180° South  Level FlightAware Approximate
Wed 11:32:00 AM 40.0609 -74.1780 224° Southwest  Level FlightAware Approximate
Wed 11:33:00 AM 40.0344 -74.2112 224° Southwest  Level FlightAware Approximate
Wed 11:34:00 AM 40.0069 -74.2431 217° Southwest  Level FlightAware Approximate
Wed 11:35:00 AM 39.9738 -74.2631 201° Southwest  Level FlightAware Approximate
Wed 11:36:00 AM 39.9436 -74.2898 217° Southwest  Level FlightAware Approximate
Wed 11:37:00 AM 39.9275 -74.2924 218° Southwest  Level Estimated
Wed 11:38:00 AM 39.9275 -74.2924 222° Southwest  Level Estimated
Wed 11:39:00 AM 39.9275 -74.2924 222° Southwest  Level Estimated

Login

Don't have an account? Register now (free) for customized features, flight alerts, and more!